Time;durP1;ratioP1;P1;durP2;ratioP2;P2;SDS_P1;SDS_P2;PMS_P1;PMS_P2;Temp;Humidity;BMP_temperature;BMP_pressure;BME280_temperature;BME280_humidity;BME280_pressure;Samples;Min_cycle;Max_cycle;Signal;HPM_P1;HPM_P2
2021/04/11 00:01:45;;;;;;;6.63;5.00;;;;;;;12.83;58.25;98269.22;5049221;28;40629;-74
2021/04/11 00:04:13;;;;;;;5.07;4.53;;;;;;;12.82;57.96;98260.38;5049166;28;41708;-74
2021/04/11 00:06:40;;;;;;;8.10;5.90;;;;;;;12.81;58.43;98255.19;5031221;28;41139;-74
2021/04/11 00:09:07;;;;;;;6.83;5.17;;;;;;;12.80;58.25;98253.50;5047636;28;42735;-74
2021/04/11 00:11:34;;;;;;;5.53;4.93;;;;;;;12.81;58.06;98260.50;5063906;28;40623;-73
2021/04/11 00:14:02;;;;;;;6.23;4.80;;;;;;;12.79;58.11;98254.47;5047655;28;41755;-73
2021/04/11 00:16:29;;;;;;;6.17;5.40;;;;;;;12.77;58.64;98254.59;5063577;28;43432;-74
2021/04/11 00:18:56;;;;;;;6.40;5.80;;;;;;;12.76;59.06;98249.41;5047531;28;42970;-74
2021/04/11 00:21:23;;;;;;;7.27;5.80;;;;;;;12.75;59.36;98245.03;5047949;28;41381;-74
2021/04/11 00:23:50;;;;;;;7.20;5.47;;;;;;;12.77;58.79;98243.13;5046644;28;40101;-74
2021/04/11 00:26:18;;;;;;;6.67;5.07;;;;;;;12.76;58.82;98246.75;5048258;28;43505;-73
2021/04/11 00:28:45;;;;;;;7.23;5.50;;;;;;;12.78;58.48;98244.81;5048511;28;42920;-74
2021/04/11 00:31:12;;;;;;;6.33;5.63;;;;;;;12.78;58.76;98239.50;5030656;28;38911;-74
2021/04/11 00:33:43;;;;;;;5.73;5.00;;;;;;;12.78;58.78;98239.50;5046259;28;42090;-74
2021/04/11 00:36:13;;;;;;;5.07;4.50;;;;;;;12.77;58.35;98228.03;5047990;28;42498;-75
2021/04/11 00:38:42;;;;;;;5.77;4.60;;;;;;;12.78;58.73;98231.53;5046832;28;41433;-73
2021/04/11 00:41:16;;;;;;;5.13;4.50;;;;;;;12.76;58.69;98228.16;5048604;28;40690;-73
2021/04/11 00:43:44;;;;;;;6.37;4.80;;;;;;;12.74;58.88;98228.25;5048204;28;41748;-74
2021/04/11 00:46:30;;;;;;;6.80;4.67;;;;;;;12.76;58.54;98230.81;5048206;28;42702;-73
2021/04/11 00:48:57;;;;;;;6.83;4.57;;;;;;;12.74;58.19;98227.41;5046827;28;42903;-73
2021/04/11 00:51:28;;;;;;;5.67;4.57;;;;;;;12.77;58.31;98230.69;5048445;28;39640;-73
2021/04/11 00:54:02;;;;;;;4.53;4.13;;;;;;;12.75;58.43;98229.09;5047894;28;41249;-73
2021/04/11 00:56:32;;;;;;;9.10;5.43;;;;;;;12.74;58.22;98235.38;5047224;28;42267;-73
2021/04/11 00:59:01;;;;;;;8.10;5.40;;;;;;;12.70;58.78;98226.00;5046140;28;42894;-74
2021/04/11 01:01:28;;;;;;;6.37;5.17;;;;;;;12.66;58.79;98219.25;5039473;28;39991;-74
2021/04/11 01:03:56;;;;;;;5.83;5.10;;;;;;;12.61;58.70;98222.25;5045668;28;42426;-74
2021/04/11 01:06:28;;;;;;;6.67;5.53;;;;;;;12.57;58.80;98211.06;5041841;28;42542;-74
2021/04/11 01:08:57;;;;;;;5.37;4.47;;;;;;;12.57;58.55;98216.38;5045065;28;42153;-74
2021/04/11 01:11:30;;;;;;;4.87;4.37;;;;;;;12.55;58.85;98212.97;5042782;28;40799;-74
2021/04/11 01:14:00;;;;;;;5.40;4.83;;;;;;;12.50;58.90;98212.50;5063055;28;41594;-76
2021/04/11 01:16:29;;;;;;;5.43;4.67;;;;;;;12.53;58.60;98219.38;5026869;28;42653;-74
2021/04/11 01:18:58;;;;;;;6.73;5.27;;;;;;;12.46;58.63;98216.38;5043682;28;45332;-73
2021/04/11 01:21:40;;;;;;;4.80;4.30;;;;;;;12.46;58.54;98216.38;5045042;28;39799;-73
2021/04/11 01:24:14;;;;;;;5.43;4.47;;;;;;;12.40;58.79;98214.22;5041536;28;41786;-74
2021/04/11 01:26:50;;;;;;;5.57;5.10;;;;;;;12.33;58.87;98213.03;5043898;28;42184;-74
2021/04/11 01:29:19;;;;;;;5.63;5.03;;;;;;;12.24;58.94;98214.59;5060315;28;41928;-74
2021/04/11 01:31:47;;;;;;;5.63;4.73;;;;;;;12.13;59.19;98195.16;5044858;28;38946;-75
2021/04/11 01:34:15;;;;;;;5.53;4.80;;;;;;;12.12;59.24;98196.97;5043382;28;41670;-74
2021/04/11 01:36:45;;;;;;;6.20;5.00;;;;;;;12.09;59.34;98205.19;5046414;28;42484;-74
2021/04/11 01:39:17;;;;;;;5.40;4.83;;;;;;;12.06;59.46;98199.28;5026339;28;41326;-73
2021/04/11 01:41:48;;;;;;;5.80;4.87;;;;;;;12.02;59.73;98200.47;5038358;28;39693;-74
2021/04/11 01:44:18;;;;;;;6.60;4.83;;;;;;;11.96;59.75;98188.56;5040144;28;42512;-73
2021/04/11 01:46:45;;;;;;;5.23;4.73;;;;;;;11.95;59.65;98196.63;5025980;28;43718;-75
2021/04/11 01:49:13;;;;;;;5.57;5.07;;;;;;;11.85;59.78;98185.91;5046162;28;42834;-73
2021/04/11 01:51:47;;;;;;;5.23;4.73;;;;;;;11.82;59.89;98192.28;5047333;28;40057;-74
2021/04/11 01:54:18;;;;;;;5.93;4.90;;;;;;;11.74;60.02;98194.69;5029337;28;42195;-74
2021/04/11 01:56:48;;;;;;;5.17;4.67;;;;;;;11.68;60.60;98188.97;5057320;28;42473;-74
2021/04/11 01:59:23;;;;;;;7.57;5.83;;;;;;;11.57;60.97;98186.31;5050432;28;42790;-73
2021/04/11 02:01:51;;;;;;;7.73;6.47;;;;;;;11.53;61.63;98191.00;5048107;28;40738;-72
2021/04/11 02:04:20;;;;;;;7.13;6.43;;;;;;;11.49;61.39;98192.22;5057795;28;41643;-73
2021/04/11 02:06:50;;;;;;;6.63;5.67;;;;;;;11.49;61.30;98200.19;5046290;28;42805;-73
2021/04/11 02:09:28;;;;;;;6.00;5.50;;;;;;;11.46;60.93;98206.56;5046669;28;42937;-72
2021/04/11 02:12:16;;;;;;;6.63;5.37;;;;;;;11.44;60.94;98197.03;5044284;28;40206;-74
2021/04/11 02:14:47;;;;;;;6.00;5.40;;;;;;;11.44;61.18;98195.22;5030822;28;41112;-74
2021/04/11 02:17:16;;;;;;;6.37;5.33;;;;;;;11.47;61.01;98200.28;5047742;28;41380;-74
2021/04/11 02:19:44;;;;;;;5.63;4.87;;;;;;;11.52;60.86;98194.63;5044170;28;41980;-73
2021/04/11 02:22:17;;;;;;;6.67;5.97;;;;;;;11.55;60.91;98188.25;5056734;28;39524;-73
2021/04/11 02:24:46;;;;;;;6.57;5.87;;;;;;;11.56;60.71;98190.78;5031989;28;41905;-73
2021/04/11 02:27:17;;;;;;;7.87;5.97;;;;;;;11.57;60.58;98186.31;5046533;28;42365;-74
2021/04/11 02:29:45;;;;;;;5.93;4.90;;;;;;;11.52;60.66;98178.72;5048999;28;42068;-73
2021/04/11 02:32:13;;;;;;;6.17;5.33;;;;;;;11.46;61.62;98166.78;5047043;28;40283;-73
2021/04/11 02:34:40;;;;;;;6.93;6.13;;;;;;;11.32;61.58;98168.81;5047616;28;42192;-73
2021/04/11 02:37:14;;;;;;;6.33;5.20;;;;;;;11.19;61.73;98160.09;5059136;28;42695;-75
2021/04/11 02:39:43;;;;;;;7.43;5.70;;;;;;;11.07;61.83;98173.31;5048710;28;41382;-73
2021/04/11 02:42:17;;;;;;;6.13;5.50;;;;;;;10.93;62.00;98162.91;5043118;28;39898;-74
2021/04/11 02:44:49;;;;;;;5.33;4.83;;;;;;;10.83;61.97;98159.25;5028595;28;40551;-73
2021/04/11 02:47:21;;;;;;;6.70;5.50;;;;;;;10.61;62.09;98143.28;5046263;28;42834;-73
2021/04/11 02:49:53;;;;;;;8.87;6.53;;;;;;;10.62;62.42;98155.56;5046587;28;41705;-74
2021/04/11 02:52:29;;;;;;;7.10;5.90;;;;;;;10.52;62.95;98160.66;5042546;28;40921;-73
2021/04/11 02:54:58;;;;;;;8.77;6.57;;;;;;;10.41;63.23;98153.50;5058198;28;42815;-73
2021/04/11 02:57:29;;;;;;;6.33;5.13;;;;;;;10.34;63.19;98156.72;5063473;28;42392;-73
2021/04/11 03:00:01;;;;;;;6.57;5.57;;;;;;;10.25;63.22;98150.31;5046894;28;42222;-73
2021/04/11 03:02:33;;;;;;;7.17;6.17;;;;;;;10.17;63.32;98157.91;5048750;28;39972;-73
2021/04/11 03:05:08;;;;;;;6.77;5.67;;;;;;;10.08;63.69;98155.94;5048541;28;41682;-73
2021/04/11 03:07:42;;;;;;;6.90;5.40;;;;;;;9.99;63.63;98162.72;5065310;28;43416;-73
2021/04/11 03:10:18;;;;;;;6.20;5.60;;;;;;;9.93;63.56;98151.72;5064929;28;43132;-73
2021/04/11 03:12:48;;;;;;;5.60;5.10;;;;;;;9.89;63.83;98155.56;5065607;28;39606;-73
2021/04/11 03:15:18;;;;;;;6.97;5.67;;;;;;;9.87;63.68;98165.41;5047669;28;42348;-73
2021/04/11 03:17:49;;;;;;;8.63;7.73;;;;;;;9.77;63.68;98151.13;5064538;28;43217;-72
2021/04/11 03:20:20;;;;;;;6.13;5.53;;;;;;;9.85;63.83;98154.06;5048708;28;42411;-73
2021/04/11 03:22:56;;;;;;;6.17;5.40;;;;;;;9.86;63.89;98163.69;5047618;28;39888;-73
2021/04/11 03:25:25;;;;;;;7.37;6.67;;;;;;;9.87;63.97;98163.59;5047197;28;41397;-73
2021/04/11 03:28:02;;;;;;;6.73;5.30;;;;;;;9.86;63.77;98155.78;5049077;28;42993;-73
2021/04/11 03:30:34;;;;;;;5.43;4.93;;;;;;;9.86;63.75;98161.06;5047531;28;41268;-73
2021/04/11 03:33:08;;;;;;;6.70;5.83;;;;;;;9.82;63.92;98157.78;5048012;28;40367;-72
2021/04/11 03:35:40;;;;;;;6.27;5.67;;;;;;;9.81;63.98;98164.03;5047581;28;41512;-73
2021/04/11 03:38:09;;;;;;;8.43;6.27;;;;;;;9.79;63.93;98155.34;5048160;28;42666;-74
2021/04/11 03:40:40;;;;;;;8.00;6.10;;;;;;;9.80;63.73;98161.47;5030882;28;42898;-74
2021/04/11 03:43:15;;;;;;;7.83;7.00;;;;;;;9.84;63.98;98163.81;5047884;28;41286;-73
2021/04/11 03:45:44;;;;;;;6.90;6.03;;;;;;;9.88;63.62;98167.09;5047870;28;41547;-74
2021/04/11 03:48:18;;;;;;;6.80;5.47;;;;;;;9.93;63.87;98167.59;5048090;28;43298;-74
2021/04/11 03:50:53;;;;;;;5.97;4.97;;;;;;;9.91;63.77;98159.75;5046878;28;42900;-75
2021/04/11 03:53:24;;;;;;;8.10;6.50;;;;;;;9.98;64.67;98162.84;5048490;28;39958;-73
2021/04/11 03:56:01;;;;;;;7.10;6.40;;;;;;;10.00;64.41;98158.28;5047380;28;42519;-74
2021/04/11 03:58:34;;;;;;;8.07;6.80;;;;;;;10.02;64.98;98156.34;5047641;28;43317;-74
2021/04/11 04:01:13;;;;;;;8.07;7.27;;;;;;;10.05;65.23;98156.13;5048767;28;42656;-74
2021/04/11 04:03:44;;;;;;;7.40;6.47;;;;;;;10.04;65.27;98155.28;5031791;28;38946;-74
2021/04/11 04:06:18;;;;;;;7.77;6.97;;;;;;;10.06;65.28;98163.13;5048516;28;44032;-74
2021/04/11 04:08:45;;;;;;;7.60;6.47;;;;;;;10.06;65.09;98173.72;5046565;28;42616;-74
2021/04/11 04:11:29;;;;;;;7.07;6.47;;;;;;;10.02;65.45;98156.34;5047083;28;42136;-74
2021/04/11 04:14:15;;;;;;;7.10;6.40;;;;;;;10.00;65.65;98164.44;5047557;28;39783;-74
2021/04/11 04:16:57;;;;;;;7.70;6.57;;;;;;;9.93;66.04;98163.16;5047467;28;42591;-74
2021/04/11 04:19:32;;;;;;;10.30;7.40;;;;;;;9.89;66.01;98166.13;5063353;28;43307;-73
2021/04/11 04:22:17;;;;;;;9.47;7.17;;;;;;;9.80;65.75;98161.47;5046895;28;42088;-74
2021/04/11 04:25:05;;;;;;;8.73;7.23;;;;;;;9.78;65.93;98169.50;5047394;28;40739;-74
2021/04/11 04:27:57;;;;;;;7.07;6.27;;;;;;;9.75;65.67;98174.19;5049297;28;42478;-74
2021/04/11 04:30:33;;;;;;;7.60;6.20;;;;;;;9.73;65.80;98176.94;5046894;28;41698;-74
2021/04/11 04:33:31;;;;;;;8.20;7.20;;;;;;;9.71;66.03;98168.25;5048365;28;41882;-74
2021/04/11 04:36:17;;;;;;;8.43;6.57;;;;;;;9.60;66.08;98166.38;5063560;28;40896;-74
2021/04/11 04:39:04;;;;;;;6.57;5.87;;;;;;;9.58;66.04;98170.06;5047349;28;41665;-74
2021/04/11 04:41:40;;;;;;;6.20;5.63;;;;;;;9.54;66.00;98177.34;5048145;28;42649;-73
2021/04/11 04:44:24;;;;;;;6.40;5.80;;;;;;;9.48;66.14;98177.78;5046570;28;42771;-73
2021/04/11 04:47:06;;;;;;;5.60;5.10;;;;;;;9.43;65.91;98174.59;5037209;28;39191;-73
2021/04/11 04:49:50;;;;;;;5.77;5.17;;;;;;;9.38;65.92;98176.75;5046782;28;42074;-74
2021/04/11 04:52:20;;;;;;;8.67;7.77;;;;;;;9.33;66.12;98182.31;5048187;28;43487;-74
2021/04/11 04:54:56;;;;;;;7.43;6.73;;;;;;;9.29;66.20;98182.63;5048139;28;43100;-74
2021/04/11 04:57:28;;;;;;;6.03;5.43;;;;;;;9.26;66.21;98177.56;5049140;28;39895;-75
2021/04/11 05:00:06;;;;;;;8.47;6.00;;;;;;;9.21;66.61;98169.09;5048217;28;41741;-74
2021/04/11 05:02:46;;;;;;;5.93;5.33;;;;;;;9.17;66.33;98167.59;5049799;28;42762;-74
2021/04/11 05:05:17;;;;;;;6.40;5.63;;;;;;;9.14;66.25;98170.47;5030891;28;41029;-74
2021/04/11 05:07:58;;;;;;;6.27;5.60;;;;;;;9.10;66.15;98161.91;5046354;28;38669;-74
2021/04/11 05:10:32;;;;;;;5.97;5.37;;;;;;;9.06;66.06;98156.94;5046606;28;41777;-75
2021/04/11 05:13:17;;;;;;;6.67;5.30;;;;;;;9.07;66.32;98166.53;5046328;28;42681;-74
2021/04/11 05:15:58;;;;;;;6.20;4.73;;;;;;;9.06;66.28;98172.78;5045228;28;42966;-74
2021/04/11 05:18:31;;;;;;;8.57;7.77;;;;;;;9.06;66.80;98170.13;5045561;28;39778;-74
2021/04/11 05:21:13;;;;;;;7.43;6.63;;;;;;;9.07;67.28;98162.13;5030791;28;40835;-74
2021/04/11 05:23:48;;;;;;;11.07;8.40;;;;;;;9.08;67.60;98160.31;5048493;28;42669;-74
2021/04/11 05:26:21;;;;;;;9.23;7.30;;;;;;;9.24;67.22;98175.03;5048471;28;41864;-74
2021/04/11 05:28:59;;;;;;;8.23;6.27;;;;;;;9.45;66.52;98177.16;5049295;28;41602;-74
2021/04/11 05:31:29;;;;;;;6.43;5.83;;;;;;;9.62;65.83;98169.75;5050133;28;42448;-74
2021/04/11 05:33:58;;;;;;;8.23;6.47;;;;;;;9.85;65.55;98180.53;5051560;28;43339;-74
2021/04/11 05:36:36;;;;;;;7.20;6.50;;;;;;;9.92;65.53;98179.13;5032682;28;42289;-74
2021/04/11 05:39:15;;;;;;;6.37;5.77;;;;;;;9.99;65.46;98185.69;5049205;28;39679;-74
2021/04/11 05:41:48;;;;;;;7.20;6.37;;;;;;;10.02;65.29;98180.16;5048707;28;40955;-74
2021/04/11 05:44:21;;;;;;;8.70;7.90;;;;;;;10.02;65.27;98177.50;5049372;28;43761;-74
2021/04/11 05:46:56;;;;;;;7.80;6.43;;;;;;;9.99;65.53;98173.31;5032638;28;40657;-74
2021/04/11 05:49:32;;;;;;;8.00;6.80;;;;;;;9.92;65.83;98161.47;5051235;28;39948;-74
2021/04/11 05:52:04;;;;;;;10.43;6.90;;;;;;;10.01;66.82;98159.97;5047884;28;41506;-74
2021/04/11 05:54:36;;;;;;;9.27;7.43;;;;;;;9.96;66.42;98156.81;5050163;28;43557;-74
2021/04/11 05:57:06;;;;;;;7.40;6.70;;;;;;;9.95;66.22;98166.53;5078074;28;42776;-75
2021/04/11 05:59:37;;;;;;;8.17;6.33;;;;;;;9.90;66.00;98167.81;5043246;28;40439;-75
2021/04/11 06:02:10;;;;;;;7.33;6.73;;;;;;;10.06;66.19;98184.28;5053586;28;43815;-74
2021/04/11 06:04:44;;;;;;;10.53;9.10;;;;;;;10.35;65.29;98188.38;5045779;28;42048;-74
2021/04/11 06:07:16;;;;;;;8.13;7.33;;;;;;;10.87;64.38;98187.22;5043835;28;41599;-75
2021/04/11 06:09:46;;;;;;;7.30;6.60;;;;;;;11.37;63.11;98196.66;5024218;28;39129;-73
2021/04/11 06:12:20;;;;;;;7.30;6.60;;;;;;;11.68;62.16;98205.75;5045155;28;42559;-74
2021/04/11 06:14:54;;;;;;;9.23;8.33;;;;;;;11.87;61.78;98203.38;5029106;28;42116;-74
2021/04/11 06:17:22;;;;;;;7.87;7.07;;;;;;;12.13;61.43;98208.44;5046601;28;42089;-74
2021/04/11 06:19:50;;;;;;;8.43;7.53;;;;;;;12.36;61.36;98206.63;5045163;28;40584;-75
2021/04/11 06:22:26;;;;;;;8.17;7.17;;;;;;;12.74;60.23;98191.06;5046771;28;41397;-75
2021/04/11 06:24:59;;;;;;;8.33;7.53;;;;;;;13.06;60.28;98199.06;5042782;28;42468;-74
2021/04/11 06:27:37;;;;;;;8.03;7.23;;;;;;;13.01;60.28;98187.94;5044290;28;43075;-74
2021/04/11 06:30:08;;;;;;;7.60;6.33;;;;;;;12.92;60.38;98186.91;5042454;28;39158;-74
2021/04/11 06:32:43;;;;;;;5.77;5.23;;;;;;;12.98;60.42;98187.38;5047921;28;41630;-74
2021/04/11 06:35:14;;;;;;;5.57;5.07;;;;;;;13.10;60.21;98181.91;5065043;28;43426;-74
2021/04/11 06:37:46;;;;;;;6.90;6.20;;;;;;;13.28;60.21;98182.19;5058190;28;42923;-74
2021/04/11 06:40:25;;;;;;;5.53;5.03;;;;;;;13.53;59.79;98189.78;5049933;28;40407;-74
2021/04/11 06:43:19;;;;;;;10.03;5.87;;;;;;;13.80;57.96;98186.56;5042284;28;41857;-74
2021/04/11 06:45:52;;;;;;;5.20;4.70;;;;;;;14.09;56.61;98183.22;5057497;28;41699;-74
2021/04/11 06:48:41;;;;;;;5.60;4.40;;;;;;;14.59;54.58;98194.72;5042970;28;42747;-74
2021/04/11 06:51:22;;;;;;;5.10;4.60;;;;;;;15.04;52.37;98209.25;5063139;28;40002;-74
2021/04/11 06:54:14;;;;;;;5.70;4.50;;;;;;;15.48;50.37;98219.47;5059767;28;41692;-74
2021/04/11 06:57:02;;;;;;;4.73;3.80;;;;;;;15.99;50.73;98216.47;5024812;28;43175;-75
2021/04/11 06:59:44;;;;;;;4.10;3.67;;;;;;;16.35;49.45;98223.63;5033190;28;41861;-75
2021/04/11 07:02:47;;;;;;;7.20;4.03;;;;;;;16.64;47.87;98225.34;5060511;28;42308;-75
2021/04/11 07:05:28;;;;;;;4.40;3.67;;;;;;;16.73;46.92;98233.31;5072650;28;41542;-75
2021/04/11 07:08:25;;;;;;;5.13;3.50;;;;;;;16.69;47.41;98223.09;5043173;28;42603;-74
2021/04/11 07:11:10;;;;;;;5.87;3.30;;;;;;;16.68;47.16;98222.25;5043999;28;41824;-75
2021/04/11 07:14:23;;;;;;;4.93;3.43;;;;;;;16.97;48.24;98215.84;5042013;28;40712;-74
2021/04/11 07:17:12;;;;;;;3.83;2.70;;;;;;;17.85;45.88;98223.00;5043665;28;42261;-75
2021/04/11 07:20:15;;;;;;;4.23;2.77;;;;;;;18.32;44.45;98236.84;5025738;28;43053;-75
2021/04/11 07:23:08;;;;;;;3.47;3.03;;;;;;;18.43;44.55;98233.88;5035994;28;43541;-75
2021/04/11 07:25:58;;;;;;;3.83;3.23;;;;;;;18.30;43.60;98242.38;5045633;28;39303;-74
2021/04/11 07:28:39;;;;;;;3.00;2.20;;;;;;;18.26;44.23;98254.44;5048733;28;41610;-75
2021/04/11 07:31:18;;;;;;;2.87;2.40;;;;;;;18.80;43.59;98252.34;5049171;28;43449;-73
2021/04/11 07:34:03;;;;;;;2.53;2.23;;;;;;;19.44;41.79;98258.88;5048764;28;42060;-75
2021/04/11 07:37:07;;;;;;;4.00;2.67;;;;;;;20.28;40.29;98260.34;5061581;28;38965;-73
2021/04/11 07:39:45;;;;;;;3.57;2.50;;;;;;;21.51;38.49;98282.06;5028871;28;41435;-73
2021/04/11 07:42:35;;;;;;;2.70;2.13;;;;;;;22.87;36.12;98284.72;5029988;28;20248;-73
2021/04/11 07:45:21;;;;;;;2.97;2.30;;;;;;;23.84;33.38;98304.97;5047821;28;41924;-73
2021/04/11 07:48:01;;;;;;;4.67;2.47;;;;;;;23.48;33.46;98287.94;5047496;28;40205;-73
2021/04/11 07:50:39;;;;;;;3.53;2.47;;;;;;;23.19;34.14;98303.19;5048243;28;40922;-73
2021/04/11 07:53:20;;;;;;;6.23;2.90;;;;;;;22.82;35.38;98281.72;5032803;28;41766;-74
2021/04/11 07:56:00;;;;;;;4.57;2.60;;;;;;;22.48;35.54;98280.41;5048020;28;42439;-73
2021/04/11 07:59:10;;;;;;;3.43;2.27;;;;;;;22.22;35.69;98274.59;5031790;28;39884;-73
2021/04/11 08:01:58;;;;;;;3.33;2.27;;;;;;;22.19;36.20;98274.97;5048538;28;41311;-73
2021/04/11 08:04:32;;;;;;;3.63;2.40;;;;;;;22.19;35.64;98280.34;5048727;28;42594;-73
2021/04/11 08:07:12;;;;;;;3.53;2.30;;;;;;;22.25;36.51;98271.53;5047637;28;42270;-73
2021/04/11 08:09:49;;;;;;;2.40;2.00;;;;;;;22.21;35.46;98259.44;5063893;28;42424;-74
2021/04/11 08:12:49;;;;;;;2.43;2.00;;;;;;;22.33;35.81;98279.53;5046966;28;41819;-75
2021/04/11 08:15:26;;;;;;;3.67;2.00;;;;;;;22.42;35.34;98264.94;5047128;28;43404;-75
2021/04/11 08:18:26;;;;;;;2.67;1.67;;;;;;;22.55;35.50;98275.94;5048393;28;42297;-74
2021/04/11 08:21:15;;;;;;;2.03;1.60;;;;;;;22.64;34.24;98278.53;5030214;28;39693;-75
2021/04/11 08:23:53;;;;;;;2.53;1.70;;;;;;;22.77;34.20;98279.56;5049342;28;42718;-74
2021/04/11 08:26:49;;;;;;;2.33;1.30;;;;;;;22.93;34.52;98279.38;5046594;28;43298;-74
2021/04/11 08:29:40;;;;;;;1.67;1.27;;;;;;;23.20;33.01;98280.56;5047281;28;42231;-74
2021/04/11 08:32:54;;;;;;;2.43;1.27;;;;;;;23.97;32.07;98290.75;5047548;28;39694;-74
2021/04/11 08:35:35;;;;;;;1.83;1.23;;;;;;;25.29;31.15;98294.31;5046606;28;42104;-74
2021/04/11 08:38:30;;;;;;;2.23;1.40;;;;;;;26.91;28.38;98308.44;5063539;28;42794;-75
2021/04/11 08:41:44;;;;;;;1.80;1.20;;;;;;;27.06;28.40;98303.63;5039364;28;41108;-75
2021/04/11 08:44:24;;;;;;;1.23;1.13;;;;;;;27.11;27.77;98306.50;4986151;28;40019;-74
2021/04/11 08:47:06;;;;;;;2.07;1.00;;;;;;;27.65;27.45;98314.25;5045572;28;41721;-75
2021/04/11 08:49:44;;;;;;;1.40;0.97;;;;;;;28.10;26.67;98312.25;5046758;28;42926;-75
2021/04/11 08:52:23;;;;;;;1.50;1.40;;;;;;;29.96;24.42;98317.41;5046581;28;43361;-75
2021/04/11 08:54:56;;;;;;;2.20;1.30;;;;;;;31.35;22.30;98324.03;5048381;28;39782;-75
2021/04/11 08:57:46;;;;;;;3.40;1.37;;;;;;;32.06;22.23;98322.69;5051993;28;41731;-75
2021/04/11 09:00:20;;;;;;;2.83;1.43;;;;;;;32.31;21.31;98342.34;5051550;28;42374;-74
2021/04/11 09:03:04;;;;;;;2.47;1.87;;;;;;;33.28;20.64;98343.84;5051157;28;41935;-75
2021/04/11 09:05:41;;;;;;;2.20;1.77;;;;;;;34.93;19.10;98342.28;5050780;28;40523;-75
2021/04/11 09:08:28;;;;;;;1.70;1.40;;;;;;;36.66;17.43;98343.66;5033740;28;41648;-75
2021/04/11 09:11:09;;;;;;;1.92;1.27;;;;;;;36.24;17.41;98336.50;5050923;28;43826;-75
2021/04/11 09:13:51;;;;;;;3.53;1.50;;;;;;;36.08;17.59;98336.72;5052227;28;42825;-75
2021/04/11 09:16:26;;;;;;;2.07;1.30;;;;;;;35.48;17.89;98328.00;5035688;28;40395;-75
2021/04/11 09:19:13;;;;;;;1.57;1.47;;;;;;;34.72;17.52;98323.94;5049905;28;42346;-75
2021/04/11 09:22:12;;;;;;;1.63;1.33;;;;;;;34.47;19.05;98325.41;5050033;28;41773;-75
2021/04/11 09:24:46;;;;;;;2.50;1.50;;;;;;;34.20;18.99;98321.84;5029980;28;42128;-75
2021/04/11 09:27:51;;;;;;;4.07;1.50;;;;;;;33.89;19.39;98310.53;5049192;28;39679;-75
2021/04/11 09:30:53;;;;;;;1.40;1.30;;;;;;;33.57;19.65;98309.63;5050391;28;42122;-74
2021/04/11 09:33:41;;;;;;;2.00;1.57;;;;;;;33.29;19.81;98299.69;5048671;28;43520;-75
2021/04/11 09:36:21;;;;;;;3.67;1.57;;;;;;;33.02;20.77;98294.09;5049882;28;41359;-74
2021/04/11 09:39:26;;;;;;;1.30;1.20;;;;;;;33.11;20.17;98303.56;5050486;28;39980;-74
2021/04/11 09:42:24;;;;;;;2.30;1.50;;;;;;;33.55;19.58;98298.06;5050758;28;41620;-74
2021/04/11 09:45:19;;;;;;;2.30;1.70;;;;;;;33.55;19.67;98300.81;5050565;28;41524;-75
2021/04/11 09:47:58;;;;;;;1.90;1.57;;;;;;;33.47;20.14;98299.38;5027322;28;42668;-75
2021/04/11 09:50:41;;;;;;;2.40;1.80;;;;;;;33.54;19.37;98307.38;5049065;28;39365;-75
2021/04/11 09:53:49;;;;;;;3.57;1.70;;;;;;;33.78;19.25;98314.28;5049606;28;42350;-74
2021/04/11 09:56:28;;;;;;;2.03;1.57;;;;;;;33.57;19.23;98303.31;5046540;28;42464;-75
2021/04/11 09:59:35;;;;;;;1.63;1.53;;;;;;;33.46;19.38;98299.63;5046895;28;42655;-74
2021/04/11 10:02:14;;;;;;;2.13;1.70;;;;;;;33.21;19.59;98296.53;5048592;28;40823;-74
2021/04/11 10:04:50;;;;;;;1.70;1.33;;;;;;;33.05;19.60;98293.59;5048893;28;40977;-75
2021/04/11 10:07:39;;;;;;;1.93;1.73;;;;;;;33.45;19.07;98303.44;5046882;28;42404;-75
2021/04/11 10:10:22;;;;;;;2.23;1.40;;;;;;;32.91;19.36;98292.28;5049321;28;42609;-77
2021/04/11 10:13:35;;;;;;;3.37;1.63;;;;;;;33.28;19.40;98297.19;5050170;28;39984;-75
2021/04/11 10:16:18;;;;;;;1.80;1.40;;;;;;;35.04;18.64;98288.94;5050162;28;42072;-75
2021/04/11 10:19:06;;;;;;;1.67;1.20;;;;;;;35.59;17.63;98298.56;5050664;28;43227;-74
2021/04/11 10:21:42;;;;;;;1.80;1.30;;;;;;;36.49;17.04;98305.31;5030271;28;42936;-76
2021/04/11 10:24:23;;;;;;;2.87;1.50;;;;;;;36.35;17.44;98293.22;5028600;28;39229;-75
2021/04/11 10:26:57;;;;;;;2.83;1.47;;;;;;;36.26;17.30;98295.69;5029645;28;41804;-73
2021/04/11 10:29:27;;;;;;;2.40;1.37;;;;;;;37.45;16.44;98297.97;5042793;28;43048;-75
2021/04/11 10:32:01;;;;;;;2.92;1.50;;;;;;;38.18;15.66;98300.88;5031568;28;42380;-74
2021/04/11 10:34:33;;;;;;;3.90;1.50;;;;;;;37.08;16.05;98307.47;5048745;28;40034;-74
2021/04/11 10:37:15;;;;;;;2.83;1.40;;;;;;;35.74;17.08;98304.13;5049270;28;42455;-74
2021/04/11 10:39:53;;;;;;;2.53;1.30;;;;;;;34.50;17.72;98289.13;5049608;28;42751;-74
2021/04/11 10:42:33;;;;;;;1.33;1.23;;;;;;;35.70;17.60;98291.16;5049628;28;42167;-74
2021/04/11 10:45:20;;;;;;;1.67;1.30;;;;;;;35.39;17.44;98290.22;5048992;28;39489;-74
2021/04/11 10:48:16;;;;;;;2.20;1.63;;;;;;;35.54;17.50;98282.00;5049639;28;42679;-74
2021/04/11 10:50:52;;;;;;;1.63;1.33;;;;;;;34.84;17.41;98284.16;5047520;28;42917;-75
2021/04/11 10:53:40;;;;;;;1.43;1.30;;;;;;;33.82;18.70;98276.97;5048018;28;42768;-75
2021/04/11 10:56:18;;;;;;;4.00;1.90;;;;;;;33.49;18.97;98271.66;5049933;28;41031;-74
2021/04/11 10:59:00;;;;;;;1.63;1.20;;;;;;;32.40;19.61;98253.13;5049309;28;41717;-74
2021/04/11 11:01:48;;;;;;;2.20;1.33;;;;;;;32.70;20.10;98251.94;5049941;28;43231;-74
2021/04/11 11:04:58;;;;;;;2.17;1.63;;;;;;;33.76;19.46;98250.53;5029904;28;42287;-74
2021/04/11 11:07:52;;;;;;;1.90;1.37;;;;;;;33.75;18.88;98254.41;5044775;28;39859;-74
2021/04/11 11:10:28;;;;;;;2.13;1.37;;;;;;;33.38;19.58;98243.22;5045913;28;41623;-74
2021/04/11 11:13:14;;;;;;;2.17;1.20;;;;;;;33.16;19.71;98245.97;5049384;28;42494;-74
2021/04/11 11:16:05;;;;;;;1.17;1.07;;;;;;;33.34;19.94;98244.84;5049290;28;42616;-74
2021/04/11 11:19:02;;;;;;;1.70;1.10;;;;;;;33.37;19.84;98246.25;5050052;28;39632;-74
2021/04/11 11:21:53;;;;;;;1.97;1.20;;;;;;;33.60;19.42;98248.72;5049204;28;41529;-74
2021/04/11 11:24:31;;;;;;;1.67;1.33;;;;;;;34.00;19.75;98247.47;5048861;28;42870;-74
2021/04/11 11:27:11;;;;;;;1.83;1.40;;;;;;;33.93;18.65;98255.09;5048773;28;42017;-75
2021/04/11 11:30:05;;;;;;;1.87;1.40;;;;;;;34.73;19.05;98237.56;5047981;28;39537;-74
2021/04/11 11:32:41;;;;;;;2.17;1.60;;;;;;;35.53;17.99;98247.28;5049140;28;42522;-75
2021/04/11 11:35:11;;;;;;;2.07;1.40;;;;;;;34.73;18.25;98252.16;5047449;28;41801;-74
2021/04/11 11:37:49;;;;;;;1.30;1.20;;;;;;;34.61;18.85;98223.19;5047638;28;43297;-74
2021/04/11 11:40:26;;;;;;;2.43;1.27;;;;;;;34.96;18.32;98231.66;5047819;28;38470;-74
2021/04/11 11:43:10;;;;;;;1.57;1.20;;;;;;;36.76;17.42;98243.50;5048051;28;42439;-74
2021/04/11 11:45:47;;;;;;;2.40;1.40;;;;;;;36.52;16.69;98249.59;5048311;28;42310;-74
2021/04/11 11:48:38;;;;;;;2.60;1.30;;;;;;;36.95;16.63;98258.38;5048526;28;43011;-74
2021/04/11 11:51:11;;;;;;;1.70;1.47;;;;;;;36.17;17.33;98250.44;5048650;28;40973;-75
2021/04/11 11:53:43;;;;;;;2.07;1.20;;;;;;;35.07;17.77;98257.31;5047892;28;41568;-74
2021/04/11 11:56:24;;;;;;;1.83;1.43;;;;;;;33.37;18.59;98247.09;5048243;28;43439;-74
2021/04/11 11:59:03;;;;;;;1.30;1.20;;;;;;;31.91;20.57;98218.31;5047932;28;42935;-74
2021/04/11 12:01:38;;;;;;;1.43;1.00;;;;;;;30.75;21.27;98200.47;5049000;28;40642;-74
2021/04/11 12:04:25;;;;;;;2.93;1.27;;;;;;;30.18;22.45;98211.16;5047420;28;41016;-74
2021/04/11 12:06:58;;;;;;;1.63;1.40;;;;;;;29.90;22.37;98211.84;5048270;28;42415;-74
2021/04/11 12:09:29;;;;;;;2.67;1.33;;;;;;;30.74;22.46;98205.09;5028825;28;43014;-74
2021/04/11 12:12:01;;;;;;;1.80;1.00;;;;;;;33.27;20.09;98224.16;5028016;28;38471;-76
2021/04/11 12:14:34;;;;;;;1.83;1.13;;;;;;;35.05;18.13;98218.22;5036098;28;42521;-74
2021/04/11 12:17:12;;;;;;;1.83;1.07;;;;;;;35.11;17.93;98237.25;5048313;28;42751;-75
2021/04/11 12:19:47;;;;;;;2.20;1.10;;;;;;;34.53;18.31;98233.59;5047330;28;42203;-74
2021/04/11 12:22:19;;;;;;;1.77;1.00;;;;;;;34.46;18.78;98222.00;5047979;28;39729;-75
2021/04/11 12:24:55;;;;;;;2.30;1.30;;;;;;;36.26;17.65;98232.25;5027432;28;40903;-75
2021/04/11 12:27:30;;;;;;;1.20;1.10;;;;;;;36.43;16.62;98240.25;5028325;28;43432;-75